sensor_id;sensor_type;location;lat;lon;timestamp;P1;durP1;ratioP1;P2;durP2;ratioP2
2021;SDS011;1015;49.756;6.994;2022-08-21T00:00:04;10.23;;;5.70;;
2021;SDS011;1015;49.756;6.994;2022-08-21T00:02:34;9.17;;;6.40;;
2021;SDS011;1015;49.756;6.994;2022-08-21T00:05:03;7.80;;;5.53;;
2021;SDS011;1015;49.756;6.994;2022-08-21T00:07:30;6.23;;;5.53;;
2021;SDS011;1015;49.756;6.994;2022-08-21T00:09:57;7.10;;;6.03;;
2021;SDS011;1015;49.756;6.994;2022-08-21T00:12:24;10.10;;;6.40;;
2021;SDS011;1015;49.756;6.994;2022-08-21T00:14:52;6.20;;;5.60;;
2021;SDS011;1015;49.756;6.994;2022-08-21T00:17:19;7.53;;;6.37;;
2021;SDS011;1015;49.756;6.994;2022-08-21T00:19:47;6.77;;;5.73;;
2021;SDS011;1015;49.756;6.994;2022-08-21T00:22:16;8.03;;;5.93;;
2021;SDS011;1015;49.756;6.994;2022-08-21T00:24:43;8.87;;;6.07;;
2021;SDS011;1015;49.756;6.994;2022-08-21T00:27:10;10.20;;;6.00;;
2021;SDS011;1015;49.756;6.994;2022-08-21T00:29:37;6.83;;;6.13;;
2021;SDS011;1015;49.756;6.994;2022-08-21T00:32:04;8.23;;;6.50;;
2021;SDS011;1015;49.756;6.994;2022-08-21T00:34:31;8.13;;;5.80;;
2021;SDS011;1015;49.756;6.994;2022-08-21T00:36:58;7.73;;;6.50;;
2021;SDS011;1015;49.756;6.994;2022-08-21T00:39:26;6.97;;;6.27;;
2021;SDS011;1015;49.756;6.994;2022-08-21T00:41:53;7.03;;;5.60;;
2021;SDS011;1015;49.756;6.994;2022-08-21T00:44:20;9.53;;;5.80;;
2021;SDS011;1015;49.756;6.994;2022-08-21T00:46:47;8.43;;;6.23;;
2021;SDS011;1015;49.756;6.994;2022-08-21T00:49:14;7.17;;;6.43;;
2021;SDS011;1015;49.756;6.994;2022-08-21T00:51:42;8.23;;;6.70;;
2021;SDS011;1015;49.756;6.994;2022-08-21T00:54:14;7.30;;;5.80;;
2021;SDS011;1015;49.756;6.994;2022-08-21T00:56:44;8.40;;;6.13;;
2021;SDS011;1015;49.756;6.994;2022-08-21T00:59:12;6.93;;;6.23;;
2021;SDS011;1015;49.756;6.994;2022-08-21T01:01:39;7.20;;;6.50;;
2021;SDS011;1015;49.756;6.994;2022-08-21T01:04:06;7.77;;;6.70;;
2021;SDS011;1015;49.756;6.994;2022-08-21T01:06:33;6.90;;;6.17;;
2021;SDS011;1015;49.756;6.994;2022-08-21T01:09:00;7.13;;;6.10;;
2021;SDS011;1015;49.756;6.994;2022-08-21T01:11:27;7.73;;;6.20;;
2021;SDS011;1015;49.756;6.994;2022-08-21T01:13:55;6.40;;;5.80;;
2021;SDS011;1015;49.756;6.994;2022-08-21T01:16:22;10.07;;;7.50;;
2021;SDS011;1015;49.756;6.994;2022-08-21T01:18:50;9.50;;;6.77;;
2021;SDS011;1015;49.756;6.994;2022-08-21T01:21:20;9.30;;;6.97;;
2021;SDS011;1015;49.756;6.994;2022-08-21T01:23:50;8.43;;;6.90;;
2021;SDS011;1015;49.756;6.994;2022-08-21T01:26:20;10.07;;;7.20;;
2021;SDS011;1015;49.756;6.994;2022-08-21T01:28:52;9.33;;;6.53;;
2021;SDS011;1015;49.756;6.994;2022-08-21T01:31:24;7.13;;;6.53;;
2021;SDS011;1015;49.756;6.994;2022-08-21T01:33:54;7.50;;;6.23;;
2021;SDS011;1015;49.756;6.994;2022-08-21T01:36:23;9.30;;;6.73;;
2021;SDS011;1015;49.756;6.994;2022-08-21T01:38:51;6.97;;;6.27;;
2021;SDS011;1015;49.756;6.994;2022-08-21T01:41:18;7.80;;;6.67;;
2021;SDS011;1015;49.756;6.994;2022-08-21T01:43:45;8.70;;;7.10;;
2021;SDS011;1015;49.756;6.994;2022-08-21T01:46:12;10.40;;;7.17;;
2021;SDS011;1015;49.756;6.994;2022-08-21T01:48:39;9.10;;;7.63;;
2021;SDS011;1015;49.756;6.994;2022-08-21T01:51:07;12.73;;;7.70;;
2021;SDS011;1015;49.756;6.994;2022-08-21T01:53:35;7.73;;;6.87;;
2021;SDS011;1015;49.756;6.994;2022-08-21T01:56:03;10.00;;;6.60;;
2021;SDS011;1015;49.756;6.994;2022-08-21T01:58:31;10.23;;;7.13;;
2021;SDS011;1015;49.756;6.994;2022-08-21T02:00:59;8.53;;;7.23;;
2021;SDS011;1015;49.756;6.994;2022-08-21T02:03:27;9.00;;;6.77;;
2021;SDS011;1015;49.756;6.994;2022-08-21T02:05:54;14.30;;;7.13;;
2021;SDS011;1015;49.756;6.994;2022-08-21T02:08:21;10.33;;;7.43;;
2021;SDS011;1015;49.756;6.994;2022-08-21T02:10:51;10.87;;;7.60;;
2021;SDS011;1015;49.756;6.994;2022-08-21T02:13:18;8.53;;;6.50;;
2021;SDS011;1015;49.756;6.994;2022-08-21T02:15:45;7.63;;;6.83;;
2021;SDS011;1015;49.756;6.994;2022-08-21T02:18:12;14.77;;;7.47;;
2021;SDS011;1015;49.756;6.994;2022-08-21T02:20:40;9.33;;;7.47;;
2021;SDS011;1015;49.756;6.994;2022-08-21T02:23:09;8.20;;;7.50;;
2021;SDS011;1015;49.756;6.994;2022-08-21T02:25:37;9.23;;;6.23;;
2021;SDS011;1015;49.756;6.994;2022-08-21T02:28:06;7.97;;;6.90;;
2021;SDS011;1015;49.756;6.994;2022-08-21T02:30:38;9.13;;;7.20;;
2021;SDS011;1015;49.756;6.994;2022-08-21T02:33:07;9.47;;;7.57;;
2021;SDS011;1015;49.756;6.994;2022-08-21T02:35:36;8.23;;;6.90;;
2021;SDS011;1015;49.756;6.994;2022-08-21T02:38:04;8.47;;;7.77;;
2021;SDS011;1015;49.756;6.994;2022-08-21T02:40:33;9.73;;;7.40;;
2021;SDS011;1015;49.756;6.994;2022-08-21T02:43:02;10.10;;;8.10;;
2021;SDS011;1015;49.756;6.994;2022-08-21T02:45:32;11.43;;;7.47;;
2021;SDS011;1015;49.756;6.994;2022-08-21T02:48:01;11.13;;;7.93;;
2021;SDS011;1015;49.756;6.994;2022-08-21T02:50:31;11.20;;;8.37;;
2021;SDS011;1015;49.756;6.994;2022-08-21T02:53:00;10.70;;;8.50;;
2021;SDS011;1015;49.756;6.994;2022-08-21T02:55:28;11.63;;;7.90;;
2021;SDS011;1015;49.756;6.994;2022-08-21T02:57:57;10.27;;;8.50;;
2021;SDS011;1015;49.756;6.994;2022-08-21T03:00:26;11.03;;;7.73;;
2021;SDS011;1015;49.756;6.994;2022-08-21T03:02:56;9.10;;;7.90;;
2021;SDS011;1015;49.756;6.994;2022-08-21T03:05:23;10.10;;;7.97;;
2021;SDS011;1015;49.756;6.994;2022-08-21T03:07:51;11.80;;;7.90;;
2021;SDS011;1015;49.756;6.994;2022-08-21T03:10:18;11.60;;;8.00;;
2021;SDS011;1015;49.756;6.994;2022-08-21T03:12:46;11.23;;;7.90;;
2021;SDS011;1015;49.756;6.994;2022-08-21T03:15:14;11.00;;;7.50;;
2021;SDS011;1015;49.756;6.994;2022-08-21T03:17:43;10.03;;;8.50;;
2021;SDS011;1015;49.756;6.994;2022-08-21T03:20:12;10.80;;;8.10;;
2021;SDS011;1015;49.756;6.994;2022-08-21T03:22:41;14.77;;;8.80;;
2021;SDS011;1015;49.756;6.994;2022-08-21T03:25:08;12.67;;;8.53;;
2021;SDS011;1015;49.756;6.994;2022-08-21T03:27:36;9.23;;;8.13;;
2021;SDS011;1015;49.756;6.994;2022-08-21T03:30:04;12.23;;;7.57;;
2021;SDS011;1015;49.756;6.994;2022-08-21T03:32:33;12.10;;;8.00;;
2021;SDS011;1015;49.756;6.994;2022-08-21T03:35:00;14.30;;;9.30;;
2021;SDS011;1015;49.756;6.994;2022-08-21T03:37:28;10.83;;;8.00;;
2021;SDS011;1015;49.756;6.994;2022-08-21T03:39:55;10.00;;;8.10;;
2021;SDS011;1015;49.756;6.994;2022-08-21T03:42:22;12.37;;;8.57;;
2021;SDS011;1015;49.756;6.994;2022-08-21T03:44:49;11.20;;;8.53;;
2021;SDS011;1015;49.756;6.994;2022-08-21T03:47:17;13.63;;;9.77;;
2021;SDS011;1015;49.756;6.994;2022-08-21T03:49:44;9.97;;;8.77;;
2021;SDS011;1015;49.756;6.994;2022-08-21T03:52:11;12.13;;;8.93;;
2021;SDS011;1015;49.756;6.994;2022-08-21T03:54:39;10.47;;;8.83;;
2021;SDS011;1015;49.756;6.994;2022-08-21T03:57:06;9.40;;;8.33;;
2021;SDS011;1015;49.756;6.994;2022-08-21T03:59:33;11.43;;;8.33;;
2021;SDS011;1015;49.756;6.994;2022-08-21T04:02:01;16.27;;;8.73;;
2021;SDS011;1015;49.756;6.994;2022-08-21T04:04:30;15.73;;;9.27;;
2021;SDS011;1015;49.756;6.994;2022-08-21T04:06:57;14.70;;;9.77;;
2021;SDS011;1015;49.756;6.994;2022-08-21T04:09:25;9.93;;;8.90;;
2021;SDS011;1015;49.756;6.994;2022-08-21T04:11:53;14.53;;;10.07;;
2021;SDS011;1015;49.756;6.994;2022-08-21T04:14:20;13.03;;;9.37;;
2021;SDS011;1015;49.756;6.994;2022-08-21T04:16:47;13.63;;;8.87;;
2021;SDS011;1015;49.756;6.994;2022-08-21T04:19:14;11.70;;;9.70;;
2021;SDS011;1015;49.756;6.994;2022-08-21T04:21:41;14.77;;;9.60;;
2021;SDS011;1015;49.756;6.994;2022-08-21T04:24:08;10.20;;;9.00;;
2021;SDS011;1015;49.756;6.994;2022-08-21T04:26:36;15.03;;;9.80;;
2021;SDS011;1015;49.756;6.994;2022-08-21T04:29:05;12.10;;;9.87;;
2021;SDS011;1015;49.756;6.994;2022-08-21T04:31:32;10.30;;;9.20;;
2021;SDS011;1015;49.756;6.994;2022-08-21T04:33:59;12.10;;;9.87;;
2021;SDS011;1015;49.756;6.994;2022-08-21T04:36:26;16.47;;;10.30;;
2021;SDS011;1015;49.756;6.994;2022-08-21T04:38:53;14.27;;;9.17;;
2021;SDS011;1015;49.756;6.994;2022-08-21T04:41:20;12.67;;;9.93;;
2021;SDS011;1015;49.756;6.994;2022-08-21T04:43:47;16.20;;;10.30;;
2021;SDS011;1015;49.756;6.994;2022-08-21T04:46:16;13.33;;;9.87;;
2021;SDS011;1015;49.756;6.994;2022-08-21T04:48:43;11.47;;;9.80;;
2021;SDS011;1015;49.756;6.994;2022-08-21T04:51:11;11.67;;;10.37;;
2021;SDS011;1015;49.756;6.994;2022-08-21T04:53:41;11.53;;;9.70;;
2021;SDS011;1015;49.756;6.994;2022-08-21T04:56:12;13.67;;;10.70;;
2021;SDS011;1015;49.756;6.994;2022-08-21T04:58:41;14.93;;;10.97;;
2021;SDS011;1015;49.756;6.994;2022-08-21T05:01:09;12.67;;;10.27;;
2021;SDS011;1015;49.756;6.994;2022-08-21T05:03:41;12.43;;;10.43;;
2021;SDS011;1015;49.756;6.994;2022-08-21T05:06:09;13.97;;;10.83;;
2021;SDS011;1015;49.756;6.994;2022-08-21T05:08:38;11.73;;;10.53;;
2021;SDS011;1015;49.756;6.994;2022-08-21T05:11:07;11.57;;;10.40;;
2021;SDS011;1015;49.756;6.994;2022-08-21T05:13:34;11.47;;;9.57;;
2021;SDS011;1015;49.756;6.994;2022-08-21T05:16:02;11.83;;;10.07;;
2021;SDS011;1015;49.756;6.994;2022-08-21T05:18:29;12.80;;;9.70;;
2021;SDS011;1015;49.756;6.994;2022-08-21T05:20:57;13.20;;;9.47;;
2021;SDS011;1015;49.756;6.994;2022-08-21T05:23:24;14.10;;;9.90;;
2021;SDS011;1015;49.756;6.994;2022-08-21T05:25:51;9.57;;;8.43;;
2021;SDS011;1015;49.756;6.994;2022-08-21T05:28:20;11.60;;;7.73;;
2021;SDS011;1015;49.756;6.994;2022-08-21T05:30:47;8.57;;;6.67;;
2021;SDS011;1015;49.756;6.994;2022-08-21T05:33:14;9.37;;;7.03;;
2021;SDS011;1015;49.756;6.994;2022-08-21T05:35:41;7.23;;;6.30;;
2021;SDS011;1015;49.756;6.994;2022-08-21T05:38:09;5.47;;;4.93;;
2021;SDS011;1015;49.756;6.994;2022-08-21T05:40:36;5.40;;;4.60;;
2021;SDS011;1015;49.756;6.994;2022-08-21T05:43:03;5.27;;;4.70;;
2021;SDS011;1015;49.756;6.994;2022-08-21T05:45:31;5.33;;;4.83;;
2021;SDS011;1015;49.756;6.994;2022-08-21T05:48:04;5.67;;;4.53;;
2021;SDS011;1015;49.756;6.994;2022-08-21T05:50:32;4.90;;;4.27;;
2021;SDS011;1015;49.756;6.994;2022-08-21T05:52:59;6.27;;;4.27;;
2021;SDS011;1015;49.756;6.994;2022-08-21T05:55:27;4.50;;;4.10;;
2021;SDS011;1015;49.756;6.994;2022-08-21T05:57:54;4.57;;;4.17;;
2021;SDS011;1015;49.756;6.994;2022-08-21T06:00:21;4.97;;;4.10;;
2021;SDS011;1015;49.756;6.994;2022-08-21T06:02:49;5.20;;;4.20;;
2021;SDS011;1015;49.756;6.994;2022-08-21T06:05:16;5.30;;;4.20;;
2021;SDS011;1015;49.756;6.994;2022-08-21T06:07:44;4.43;;;4.03;;
2021;SDS011;1015;49.756;6.994;2022-08-21T06:10:10;4.90;;;4.30;;
2021;SDS011;1015;49.756;6.994;2022-08-21T06:12:39;5.80;;;4.43;;
2021;SDS011;1015;49.756;6.994;2022-08-21T06:15:06;4.77;;;4.27;;
2021;SDS011;1015;49.756;6.994;2022-08-21T06:17:34;4.23;;;3.67;;
2021;SDS011;1015;49.756;6.994;2022-08-21T06:20:01;5.97;;;4.30;;
2021;SDS011;1015;49.756;6.994;2022-08-21T06:22:29;4.40;;;4.00;;
2021;SDS011;1015;49.756;6.994;2022-08-21T06:24:56;4.67;;;3.90;;
2021;SDS011;1015;49.756;6.994;2022-08-21T06:27:23;4.73;;;4.13;;
2021;SDS011;1015;49.756;6.994;2022-08-21T06:29:51;6.63;;;4.27;;
2021;SDS011;1015;49.756;6.994;2022-08-21T06:32:18;5.10;;;4.50;;
2021;SDS011;1015;49.756;6.994;2022-08-21T06:34:45;5.33;;;4.37;;
2021;SDS011;1015;49.756;6.994;2022-08-21T06:37:12;5.37;;;3.90;;
2021;SDS011;1015;49.756;6.994;2022-08-21T06:39:38;6.53;;;4.40;;
2021;SDS011;1015;49.756;6.994;2022-08-21T06:42:05;6.00;;;4.40;;
2021;SDS011;1015;49.756;6.994;2022-08-21T06:44:38;5.20;;;4.27;;
2021;SDS011;1015;49.756;6.994;2022-08-21T06:47:07;4.57;;;3.93;;
2021;SDS011;1015;49.756;6.994;2022-08-21T06:49:34;5.40;;;4.30;;
2021;SDS011;1015;49.756;6.994;2022-08-21T06:52:01;5.30;;;4.17;;
2021;SDS011;1015;49.756;6.994;2022-08-21T06:54:28;5.57;;;4.70;;
2021;SDS011;1015;49.756;6.994;2022-08-21T06:56:56;6.20;;;4.40;;
2021;SDS011;1015;49.756;6.994;2022-08-21T06:59:23;5.30;;;4.50;;
2021;SDS011;1015;49.756;6.994;2022-08-21T07:01:50;4.70;;;4.20;;
2021;SDS011;1015;49.756;6.994;2022-08-21T07:04:18;5.50;;;4.80;;
2021;SDS011;1015;49.756;6.994;2022-08-21T07:06:45;8.23;;;4.63;;
2021;SDS011;1015;49.756;6.994;2022-08-21T07:09:12;4.47;;;3.97;;
2021;SDS011;1015;49.756;6.994;2022-08-21T07:11:39;5.93;;;4.40;;
2021;SDS011;1015;49.756;6.994;2022-08-21T07:14:07;5.10;;;4.33;;
2021;SDS011;1015;49.756;6.994;2022-08-21T07:16:34;7.60;;;4.67;;
2021;SDS011;1015;49.756;6.994;2022-08-21T07:19:01;6.30;;;4.67;;
2021;SDS011;1015;49.756;6.994;2022-08-21T07:21:29;6.57;;;4.10;;
2021;SDS011;1015;49.756;6.994;2022-08-21T07:23:56;7.43;;;4.60;;
2021;SDS011;1015;49.756;6.994;2022-08-21T07:26:23;8.60;;;5.40;;
2021;SDS011;1015;49.756;6.994;2022-08-21T07:28:51;6.40;;;4.43;;
2021;SDS011;1015;49.756;6.994;2022-08-21T07:31:19;6.97;;;4.40;;
2021;SDS011;1015;49.756;6.994;2022-08-21T07:33:48;4.27;;;3.87;;
2021;SDS011;1015;49.756;6.994;2022-08-21T07:36:15;10.00;;;3.93;;
2021;SDS011;1015;49.756;6.994;2022-08-21T07:38:43;4.17;;;3.73;;
2021;SDS011;1015;49.756;6.994;2022-08-21T07:41:13;4.53;;;3.70;;
2021;SDS011;1015;49.756;6.994;2022-08-21T07:43:42;3.83;;;3.43;;
2021;SDS011;1015;49.756;6.994;2022-08-21T07:46:09;5.60;;;3.90;;
2021;SDS011;1015;49.756;6.994;2022-08-21T07:48:37;5.50;;;3.37;;
2021;SDS011;1015;49.756;6.994;2022-08-21T07:51:05;4.30;;;3.10;;
2021;SDS011;1015;49.756;6.994;2022-08-21T07:53:34;5.60;;;3.13;;
2021;SDS011;1015;49.756;6.994;2022-08-21T07:56:04;4.90;;;2.80;;
2021;SDS011;1015;49.756;6.994;2022-08-21T07:58:33;7.87;;;3.00;;
2021;SDS011;1015;49.756;6.994;2022-08-21T08:01:00;4.33;;;2.87;;
2021;SDS011;1015;49.756;6.994;2022-08-21T08:03:27;7.30;;;2.40;;
2021;SDS011;1015;49.756;6.994;2022-08-21T08:05:55;2.73;;;2.20;;
2021;SDS011;1015;49.756;6.994;2022-08-21T08:08:22;5.33;;;2.30;;
2021;SDS011;1015;49.756;6.994;2022-08-21T08:10:50;5.60;;;3.07;;
2021;SDS011;1015;49.756;6.994;2022-08-21T08:13:19;5.57;;;3.03;;
2021;SDS011;1015;49.756;6.994;2022-08-21T08:15:45;6.70;;;3.70;;
2021;SDS011;1015;49.756;6.994;2022-08-21T08:18:12;5.20;;;3.00;;
2021;SDS011;1015;49.756;6.994;2022-08-21T08:20:39;4.27;;;2.40;;
2021;SDS011;1015;49.756;6.994;2022-08-21T08:23:07;6.90;;;3.00;;
2021;SDS011;1015;49.756;6.994;2022-08-21T08:25:36;4.67;;;2.67;;
2021;SDS011;1015;49.756;6.994;2022-08-21T08:28:03;4.87;;;3.00;;
2021;SDS011;1015;49.756;6.994;2022-08-21T08:30:32;6.20;;;2.60;;
2021;SDS011;1015;49.756;6.994;2022-08-21T08:32:59;4.17;;;2.57;;
2021;SDS011;1015;49.756;6.994;2022-08-21T08:35:26;3.40;;;2.40;;
2021;SDS011;1015;49.756;6.994;2022-08-21T08:37:54;5.90;;;2.80;;
2021;SDS011;1015;49.756;6.994;2022-08-21T08:40:22;5.17;;;2.87;;
2021;SDS011;1015;49.756;6.994;2022-08-21T08:42:58;5.40;;;2.60;;
2021;SDS011;1015;49.756;6.994;2022-08-21T08:45:25;5.07;;;2.20;;
2021;SDS011;1015;49.756;6.994;2022-08-21T08:47:55;5.60;;;2.77;;
2021;SDS011;1015;49.756;6.994;2022-08-21T08:50:38;3.43;;;2.50;;
2021;SDS011;1015;49.756;6.994;2022-08-21T08:53:10;8.63;;;3.00;;
2021;SDS011;1015;49.756;6.994;2022-08-21T08:55:42;4.80;;;2.83;;
2021;SDS011;1015;49.756;6.994;2022-08-21T08:58:11;3.90;;;2.60;;
2021;SDS011;1015;49.756;6.994;2022-08-21T09:00:43;4.57;;;2.90;;
2021;SDS011;1015;49.756;6.994;2022-08-21T09:03:14;5.20;;;3.10;;
2021;SDS011;1015;49.756;6.994;2022-08-21T09:05:43;6.00;;;3.10;;
2021;SDS011;1015;49.756;6.994;2022-08-21T09:08:20;5.37;;;3.03;;
2021;SDS011;1015;49.756;6.994;2022-08-21T09:11:04;6.53;;;2.87;;
2021;SDS011;1015;49.756;6.994;2022-08-21T09:13:39;5.53;;;2.77;;
2021;SDS011;1015;49.756;6.994;2022-08-21T09:16:16;4.80;;;2.73;;
2021;SDS011;1015;49.756;6.994;2022-08-21T09:18:54;3.87;;;2.90;;
2021;SDS011;1015;49.756;6.994;2022-08-21T09:21:31;8.13;;;3.07;;
2021;SDS011;1015;49.756;6.994;2022-08-21T09:24:12;4.17;;;2.73;;
2021;SDS011;1015;49.756;6.994;2022-08-21T09:26:49;6.40;;;3.30;;
2021;SDS011;1015;49.756;6.994;2022-08-21T09:29:24;5.67;;;2.97;;
2021;SDS011;1015;49.756;6.994;2022-08-21T09:31:54;4.20;;;3.20;;
2021;SDS011;1015;49.756;6.994;2022-08-21T09:34:26;5.07;;;2.83;;
2021;SDS011;1015;49.756;6.994;2022-08-21T09:36:54;2.93;;;2.33;;
2021;SDS011;1015;49.756;6.994;2022-08-21T09:39:23;6.33;;;3.33;;
2021;SDS011;1015;49.756;6.994;2022-08-21T09:41:55;5.80;;;2.73;;
2021;SDS011;1015;49.756;6.994;2022-08-21T09:44:24;3.90;;;2.50;;
2021;SDS011;1015;49.756;6.994;2022-08-21T09:46:53;5.13;;;2.90;;
2021;SDS011;1015;49.756;6.994;2022-08-21T09:49:29;2.77;;;2.30;;
2021;SDS011;1015;49.756;6.994;2022-08-21T09:51:57;5.70;;;2.53;;
2021;SDS011;1015;49.756;6.994;2022-08-21T09:54:29;4.23;;;2.77;;
2021;SDS011;1015;49.756;6.994;2022-08-21T09:56:59;4.43;;;2.87;;
2021;SDS011;1015;49.756;6.994;2022-08-21T09:59:48;4.53;;;2.37;;
2021;SDS011;1015;49.756;6.994;2022-08-21T10:02:22;4.13;;;2.73;;
2021;SDS011;1015;49.756;6.994;2022-08-21T10:04:55;3.93;;;2.93;;
2021;SDS011;1015;49.756;6.994;2022-08-21T10:07:27;5.13;;;2.80;;
2021;SDS011;1015;49.756;6.994;2022-08-21T10:10:00;4.87;;;2.70;;
2021;SDS011;1015;49.756;6.994;2022-08-21T10:12:32;3.67;;;2.40;;
2021;SDS011;1015;49.756;6.994;2022-08-21T10:15:06;3.70;;;2.80;;
2021;SDS011;1015;49.756;6.994;2022-08-21T10:17:44;4.50;;;2.70;;
2021;SDS011;1015;49.756;6.994;2022-08-21T10:20:22;4.23;;;2.60;;
2021;SDS011;1015;49.756;6.994;2022-08-21T10:22:59;6.37;;;3.03;;
2021;SDS011;1015;49.756;6.994;2022-08-21T10:25:32;3.47;;;2.43;;
2021;SDS011;1015;49.756;6.994;2022-08-21T10:28:08;5.30;;;2.87;;
2021;SDS011;1015;49.756;6.994;2022-08-21T10:30:41;5.70;;;2.70;;
2021;SDS011;1015;49.756;6.994;2022-08-21T10:33:28;4.53;;;2.70;;
2021;SDS011;1015;49.756;6.994;2022-08-21T10:36:07;3.97;;;2.20;;
2021;SDS011;1015;49.756;6.994;2022-08-21T10:38:54;4.33;;;2.63;;
2021;SDS011;1015;49.756;6.994;2022-08-21T10:41:28;5.37;;;2.60;;
2021;SDS011;1015;49.756;6.994;2022-08-21T10:44:09;3.23;;;2.50;;
2021;SDS011;1015;49.756;6.994;2022-08-21T10:46:47;4.93;;;2.70;;
2021;SDS011;1015;49.756;6.994;2022-08-21T10:49:22;6.43;;;2.80;;
2021;SDS011;1015;49.756;6.994;2022-08-21T10:52:20;5.10;;;2.90;;
2021;SDS011;1015;49.756;6.994;2022-08-21T10:54:55;3.70;;;2.83;;
2021;SDS011;1015;49.756;6.994;2022-08-21T10:57:30;3.70;;;2.53;;
2021;SDS011;1015;49.756;6.994;2022-08-21T11:00:05;3.50;;;2.50;;
2021;SDS011;1015;49.756;6.994;2022-08-21T11:02:37;5.17;;;2.90;;
2021;SDS011;1015;49.756;6.994;2022-08-21T11:05:11;3.97;;;2.60;;
2021;SDS011;1015;49.756;6.994;2022-08-21T11:07:43;3.27;;;2.50;;
2021;SDS011;1015;49.756;6.994;2022-08-21T11:10:15;3.60;;;2.70;;
2021;SDS011;1015;49.756;6.994;2022-08-21T11:12:46;6.77;;;2.70;;
2021;SDS011;1015;49.756;6.994;2022-08-21T11:15:24;5.17;;;2.87;;
2021;SDS011;1015;49.756;6.994;2022-08-21T11:17:57;3.73;;;2.50;;
2021;SDS011;1015;49.756;6.994;2022-08-21T11:20:31;4.90;;;2.57;;
2021;SDS011;1015;49.756;6.994;2022-08-21T11:23:07;3.20;;;2.47;;
2021;SDS011;1015;49.756;6.994;2022-08-21T11:25:41;5.60;;;2.70;;
2021;SDS011;1015;49.756;6.994;2022-08-21T11:28:13;3.80;;;2.50;;
2021;SDS011;1015;49.756;6.994;2022-08-21T11:30:47;2.73;;;2.33;;
2021;SDS011;1015;49.756;6.994;2022-08-21T11:33:26;4.17;;;2.63;;
2021;SDS011;1015;49.756;6.994;2022-08-21T11:36:07;3.30;;;2.53;;
2021;SDS011;1015;49.756;6.994;2022-08-21T11:38:44;4.87;;;2.43;;
2021;SDS011;1015;49.756;6.994;2022-08-21T11:41:22;6.43;;;2.50;;
2021;SDS011;1015;49.756;6.994;2022-08-21T11:43:56;4.87;;;2.50;;
2021;SDS011;1015;49.756;6.994;2022-08-21T11:46:31;3.37;;;2.47;;
2021;SDS011;1015;49.756;6.994;2022-08-21T11:49:08;3.57;;;2.73;;
2021;SDS011;1015;49.756;6.994;2022-08-21T11:51:53;4.10;;;2.10;;
2021;SDS011;1015;49.756;6.994;2022-08-21T11:54:31;3.87;;;2.60;;
2021;SDS011;1015;49.756;6.994;2022-08-21T11:57:03;3.17;;;2.33;;
2021;SDS011;1015;49.756;6.994;2022-08-21T11:59:36;4.90;;;2.47;;
2021;SDS011;1015;49.756;6.994;2022-08-21T12:02:09;4.80;;;2.70;;
2021;SDS011;1015;49.756;6.994;2022-08-21T12:04:42;4.33;;;2.53;;
2021;SDS011;1015;49.756;6.994;2022-08-21T12:07:12;3.60;;;2.53;;
2021;SDS011;1015;49.756;6.994;2022-08-21T12:09:56;4.23;;;2.83;;
2021;SDS011;1015;49.756;6.994;2022-08-21T12:12:25;3.33;;;2.30;;
2021;SDS011;1015;49.756;6.994;2022-08-21T12:15:04;5.33;;;2.60;;
2021;SDS011;1015;49.756;6.994;2022-08-21T12:17:54;4.53;;;2.40;;
2021;SDS011;1015;49.756;6.994;2022-08-21T12:20:36;3.70;;;2.50;;
2021;SDS011;1015;49.756;6.994;2022-08-21T12:23:18;4.83;;;2.97;;
2021;SDS011;1015;49.756;6.994;2022-08-21T12:31:53;3.53;;;2.57;;
2021;SDS011;1015;49.756;6.994;2022-08-21T12:34:22;3.07;;;2.40;;
2021;SDS011;1015;49.756;6.994;2022-08-21T12:36:56;3.63;;;2.27;;
2021;SDS011;1015;49.756;6.994;2022-08-21T12:39:27;4.27;;;2.93;;
2021;SDS011;1015;49.756;6.994;2022-08-21T12:41:57;4.70;;;2.30;;
2021;SDS011;1015;49.756;6.994;2022-08-21T12:44:31;2.97;;;2.47;;
2021;SDS011;1015;49.756;6.994;2022-08-21T12:47:05;5.20;;;2.50;;
2021;SDS011;1015;49.756;6.994;2022-08-21T12:49:41;5.10;;;2.10;;
2021;SDS011;1015;49.756;6.994;2022-08-21T12:52:19;3.40;;;2.07;;
2021;SDS011;1015;49.756;6.994;2022-08-21T12:54:48;3.33;;;2.83;;
2021;SDS011;1015;49.756;6.994;2022-08-21T12:57:18;3.57;;;2.30;;
2021;SDS011;1015;49.756;6.994;2022-08-21T12:59:52;3.43;;;2.20;;
2021;SDS011;1015;49.756;6.994;2022-08-21T13:02:22;3.00;;;2.70;;
2021;SDS011;1015;49.756;6.994;2022-08-21T13:04:51;5.50;;;2.87;;
2021;SDS011;1015;49.756;6.994;2022-08-21T13:07:22;3.20;;;2.37;;
2021;SDS011;1015;49.756;6.994;2022-08-21T13:09:53;4.50;;;2.50;;
2021;SDS011;1015;49.756;6.994;2022-08-21T13:12:25;4.07;;;2.50;;
2021;SDS011;1015;49.756;6.994;2022-08-21T13:14:55;5.90;;;2.30;;
2021;SDS011;1015;49.756;6.994;2022-08-21T13:17:24;3.47;;;2.50;;
2021;SDS011;1015;49.756;6.994;2022-08-21T13:19:53;6.10;;;2.50;;
2021;SDS011;1015;49.756;6.994;2022-08-21T13:22:24;2.83;;;2.23;;
2021;SDS011;1015;49.756;6.994;2022-08-21T13:24:51;3.40;;;2.30;;
2021;SDS011;1015;49.756;6.994;2022-08-21T13:27:20;3.10;;;2.40;;
2021;SDS011;1015;49.756;6.994;2022-08-21T13:30:02;4.33;;;2.40;;
2021;SDS011;1015;49.756;6.994;2022-08-21T13:32:32;4.53;;;2.10;;
2021;SDS011;1015;49.756;6.994;2022-08-21T13:35:07;3.00;;;2.20;;
2021;SDS011;1015;49.756;6.994;2022-08-21T13:37:38;3.60;;;2.13;;
2021;SDS011;1015;49.756;6.994;2022-08-21T13:40:07;3.37;;;2.20;;
2021;SDS011;1015;49.756;6.994;2022-08-21T13:42:40;3.60;;;2.00;;
2021;SDS011;1015;49.756;6.994;2022-08-21T13:45:14;3.10;;;2.27;;
2021;SDS011;1015;49.756;6.994;2022-08-21T13:47:48;4.03;;;2.50;;
2021;SDS011;1015;49.756;6.994;2022-08-21T13:50:16;2.63;;;2.27;;
2021;SDS011;1015;49.756;6.994;2022-08-21T13:52:48;4.03;;;2.50;;
2021;SDS011;1015;49.756;6.994;2022-08-21T13:55:34;3.23;;;2.00;;
2021;SDS011;1015;49.756;6.994;2022-08-21T13:58:03;3.63;;;2.00;;
2021;SDS011;1015;49.756;6.994;2022-08-21T14:00:33;2.73;;;1.90;;
2021;SDS011;1015;49.756;6.994;2022-08-21T14:03:04;3.13;;;2.20;;
2021;SDS011;1015;49.756;6.994;2022-08-21T14:05:34;2.43;;;2.10;;
2021;SDS011;1015;49.756;6.994;2022-08-21T14:08:05;3.03;;;2.10;;
2021;SDS011;1015;49.756;6.994;2022-08-21T14:10:35;3.27;;;2.40;;
2021;SDS011;1015;49.756;6.994;2022-08-21T14:13:06;4.03;;;2.20;;
2021;SDS011;1015;49.756;6.994;2022-08-21T14:15:55;2.53;;;2.30;;
2021;SDS011;1015;49.756;6.994;2022-08-21T14:18:24;3.00;;;2.40;;
2021;SDS011;1015;49.756;6.994;2022-08-21T14:20:51;4.90;;;2.27;;
2021;SDS011;1015;49.756;6.994;2022-08-21T14:23:29;3.70;;;2.50;;
2021;SDS011;1015;49.756;6.994;2022-08-21T14:25:58;2.13;;;1.90;;
2021;SDS011;1015;49.756;6.994;2022-08-21T14:28:27;3.70;;;2.00;;
2021;SDS011;1015;49.756;6.994;2022-08-21T14:30:58;3.03;;;2.30;;
2021;SDS011;1015;49.756;6.994;2022-08-21T14:33:36;6.23;;;2.20;;
2021;SDS011;1015;49.756;6.994;2022-08-21T14:36:03;2.30;;;1.93;;
2021;SDS011;1015;49.756;6.994;2022-08-21T14:38:30;2.67;;;2.03;;
2021;SDS011;1015;49.756;6.994;2022-08-21T14:40:58;2.90;;;2.20;;
2021;SDS011;1015;49.756;6.994;2022-08-21T14:43:26;2.90;;;1.97;;
2021;SDS011;1015;49.756;6.994;2022-08-21T14:45:54;2.50;;;2.20;;
2021;SDS011;1015;49.756;6.994;2022-08-21T14:48:22;3.53;;;1.83;;
2021;SDS011;1015;49.756;6.994;2022-08-21T14:50:49;3.27;;;1.97;;
2021;SDS011;1015;49.756;6.994;2022-08-21T14:53:17;1.83;;;1.73;;
2021;SDS011;1015;49.756;6.994;2022-08-21T14:55:44;2.97;;;2.10;;
2021;SDS011;1015;49.756;6.994;2022-08-21T14:58:28;2.47;;;1.97;;
2021;SDS011;1015;49.756;6.994;2022-08-21T15:00:55;3.50;;;2.00;;
2021;SDS011;1015;49.756;6.994;2022-08-21T15:03:24;2.93;;;2.30;;
2021;SDS011;1015;49.756;6.994;2022-08-21T15:05:51;2.40;;;1.70;;
2021;SDS011;1015;49.756;6.994;2022-08-21T15:08:18;3.40;;;2.50;;
2021;SDS011;1015;49.756;6.994;2022-08-21T15:10:45;2.43;;;1.97;;
2021;SDS011;1015;49.756;6.994;2022-08-21T15:13:13;3.23;;;2.03;;
2021;SDS011;1015;49.756;6.994;2022-08-21T15:15:41;3.93;;;2.10;;
2021;SDS011;1015;49.756;6.994;2022-08-21T15:18:10;1.97;;;1.77;;
2021;SDS011;1015;49.756;6.994;2022-08-21T15:20:38;2.73;;;2.10;;
2021;SDS011;1015;49.756;6.994;2022-08-21T15:23:06;3.80;;;2.10;;
2021;SDS011;1015;49.756;6.994;2022-08-21T15:25:34;3.33;;;1.90;;
2021;SDS011;1015;49.756;6.994;2022-08-21T15:28:02;3.20;;;2.00;;
2021;SDS011;1015;49.756;6.994;2022-08-21T15:30:30;2.67;;;1.83;;
2021;SDS011;1015;49.756;6.994;2022-08-21T15:32:57;2.90;;;2.10;;
2021;SDS011;1015;49.756;6.994;2022-08-21T15:35:24;3.43;;;2.00;;